Time;durP1;ratioP1;P1;durP2;ratioP2;P2;SDS_P1;SDS_P2;PMS_P1;PMS_P2;Temp;Humidity;BMP_temperature;BMP_pressure;BME280_temperature;BME280_humidity;BME280_pressure;Samples;Min_cycle;Max_cycle;Signal;HPM_P1;HPM_P2
2023/03/18 00:00:41;;;;;;;39.72;15.68;;;;;;;9.99;77.30;99509.53;4992240;28;20060;-89
2023/03/18 00:03:08;;;;;;;47.08;17.08;;;;;;;10.00;77.43;99512.06;4987432;28;20049;-88
2023/03/18 00:05:35;;;;;;;45.97;16.63;;;;;;;9.95;77.40;99509.00;4991845;28;20074;-88
2023/03/18 00:08:04;;;;;;;56.05;20.50;;;;;;;9.92;77.29;99505.75;4976369;28;20099;-87
2023/03/18 00:10:32;;;;;;;64.03;26.30;;;;;;;9.96;77.31;99499.22;4975774;28;20077;-87
2023/03/18 00:13:00;;;;;;;51.38;21.45;;;;;;;9.97;76.97;99507.03;4960918;28;20378;-88
2023/03/18 00:15:27;;;;;;;41.72;17.70;;;;;;;9.97;77.00;99509.69;5000471;28;20488;-88
2023/03/18 00:17:54;;;;;;;37.67;14.75;;;;;;;9.95;77.24;99514.28;4984715;28;20077;-88
2023/03/18 00:20:37;;;;;;;37.95;15.88;;;;;;;9.91;77.34;99517.38;4987057;28;20167;-88
2023/03/18 00:23:07;;;;;;;34.53;13.70;;;;;;;9.88;77.31;99520.31;4929773;28;20117;-88
2023/03/18 00:25:35;;;;;;;26.50;11.50;;;;;;;9.93;77.05;99524.19;4953449;28;20521;-89
2023/03/18 00:28:05;;;;;;;27.52;10.85;;;;;;;9.88;77.14;99529.09;4984663;28;20506;-89
2023/03/18 00:30:33;;;;;;;25.92;11.02;;;;;;;9.88;76.75;99533.56;4981293;28;20038;-88
2023/03/18 00:33:00;;;;;;;25.83;10.35;;;;;;;9.87;76.56;99535.38;4987717;28;20103;-88
2023/03/18 00:35:29;;;;;;;21.63;10.57;;;;;;;9.93;76.44;99536.63;4970682;28;20062;-88
2023/03/18 00:37:57;;;;;;;32.03;11.55;;;;;;;9.93;76.16;99533.97;4962339;28;20050;-88
2023/03/18 00:40:41;;;;;;;24.35;10.70;;;;;;;9.91;76.51;99539.41;4963511;28;20047;-88
2023/03/18 00:43:10;;;;;;;20.95;10.15;;;;;;;9.86;76.58;99533.69;4940397;28;20050;-88
2023/03/18 00:45:39;;;;;;;18.30;9.68;;;;;;;9.87;76.26;99539.81;4955814;28;20057;-88
2023/03/18 00:48:07;;;;;;;21.13;9.68;;;;;;;9.88;76.56;99533.56;4969325;28;20050;-87
2023/03/18 00:50:35;;;;;;;18.02;9.00;;;;;;;9.87;76.72;99537.16;4964936;28;20067;-88
2023/03/18 00:53:02;;;;;;;17.67;9.50;;;;;;;9.81;76.95;99533.25;4964448;28;20140;-88
2023/03/18 00:55:29;;;;;;;22.63;10.13;;;;;;;9.82;77.13;99536.75;4994887;28;20135;-88
2023/03/18 00:57:56;;;;;;;19.15;9.43;;;;;;;9.81;76.87;99533.25;5009160;28;20076;-87
2023/03/18 01:00:25;;;;;;;23.48;9.48;;;;;;;9.79;76.87;99535.22;5012193;28;20046;-87
2023/03/18 01:02:52;;;;;;;23.42;10.63;;;;;;;9.83;76.63;99536.63;5004855;28;20393;-88
2023/03/18 01:05:20;;;;;;;24.33;10.13;;;;;;;9.80;76.69;99533.41;4962767;28;20053;-88
2023/03/18 01:07:48;;;;;;;27.00;10.65;;;;;;;9.77;77.02;99534.53;4978905;28;20061;-89
2023/03/18 01:10:15;;;;;;;24.88;10.07;;;;;;;9.80;76.74;99536.06;5007827;28;20484;-87
2023/03/18 01:12:45;;;;;;;21.73;9.75;;;;;;;9.83;76.54;99538.44;5006145;28;20067;-87
2023/03/18 01:15:15;;;;;;;27.80;10.85;;;;;;;9.78;77.01;99530.91;4987874;28;20136;-87
2023/03/18 01:17:43;;;;;;;29.63;12.82;;;;;;;9.84;76.71;99532.97;4993390;28;20072;-88
2023/03/18 01:20:11;;;;;;;21.27;10.65;;;;;;;9.80;77.21;99531.59;4998855;28;20136;-88
2023/03/18 01:22:41;;;;;;;20.33;9.65;;;;;;;9.76;77.02;99531.03;4992324;28;20054;-88
2023/03/18 01:25:10;;;;;;;21.90;10.70;;;;;;;9.76;77.08;99543.44;5007740;28;20049;-87
2023/03/18 01:27:38;;;;;;;26.20;10.52;;;;;;;9.75;77.37;99532.00;4989361;28;20056;-89
2023/03/18 01:30:08;;;;;;;29.40;10.90;;;;;;;9.73;77.40;99531.31;4973803;28;20041;-88
2023/03/18 01:32:35;;;;;;;22.33;10.30;;;;;;;9.72;77.42;99531.47;4993505;28;20060;-88
2023/03/18 01:35:02;;;;;;;26.38;11.80;;;;;;;9.64;77.75;99540.09;5004215;28;20066;-87
2023/03/18 01:37:30;;;;;;;26.55;10.35;;;;;;;9.65;77.80;99543.59;4973701;28;20493;-87
2023/03/18 01:40:12;;;;;;;27.38;11.45;;;;;;;9.63;78.08;99540.22;4991778;28;20056;-89
2023/03/18 01:42:39;;;;;;;21.60;9.98;;;;;;;9.58;78.14;99537.97;4976215;28;20104;-88
2023/03/18 01:45:17;;;;;;;21.05;10.77;;;;;;;9.45;78.42;99538.22;4953193;28;20046;-88
2023/03/18 01:47:47;;;;;;;23.27;10.27;;;;;;;9.57;78.06;99541.63;4951737;28;20441;-88
2023/03/18 01:50:27;;;;;;;28.27;10.52;;;;;;;9.52;78.57;99533.22;5001745;28;20038;-88
2023/03/18 01:52:58;;;;;;;32.40;12.43;;;;;;;9.61;77.98;99536.88;4965627;28;20045;-88
2023/03/18 01:55:28;;;;;;;28.52;11.45;;;;;;;9.60;78.02;99541.34;4965141;28;20046;-88
2023/03/18 01:57:55;;;;;;;25.00;11.45;;;;;;;9.55;78.66;99546.22;4976523;28;20428;-88
2023/03/18 02:00:22;;;;;;;21.30;10.25;;;;;;;9.57;78.58;99538.97;4994022;28;20479;-89
2023/03/18 02:02:52;;;;;;;19.10;9.68;;;;;;;9.54;78.67;99533.91;4977916;28;20052;-89
2023/03/18 02:05:25;;;;;;;24.17;9.87;;;;;;;9.46;78.62;99536.41;4985643;28;20045;-88
2023/03/18 02:07:52;;;;;;;22.63;11.15;;;;;;;9.46;78.48;99539.91;5007601;28;20065;-89
2023/03/18 02:10:22;;;;;;;19.42;9.23;;;;;;;9.42;78.69;99532.38;5007963;28;20475;-89
2023/03/18 02:12:53;;;;;;;20.17;10.27;;;;;;;9.32;78.69;99533.16;4971280;28;20517;-88
2023/03/18 02:15:27;;;;;;;26.63;11.05;;;;;;;9.37;78.44;99537.25;4974306;28;20491;-89
2023/03/18 02:18:13;;;;;;;18.83;9.05;;;;;;;9.28;78.18;99536.22;4946182;28;20053;-89
2023/03/18 02:20:54;;;;;;;21.10;9.82;;;;;;;9.26;78.30;99539.03;4931739;28;20050;-88
2023/03/18 02:23:42;;;;;;;22.08;10.20;;;;;;;9.33;78.22;99540.13;4928254;28;20049;-88
2023/03/18 02:26:57;;;;;;;23.25;10.32;;;;;;;9.21;78.79;99543.88;4965164;28;20445;-89
2023/03/18 02:29:32;;;;;;;24.27;10.50;;;;;;;9.33;78.57;99540.13;4836473;28;20079;-90
2023/03/18 02:32:05;;;;;;;23.83;11.52;;;;;;;9.31;78.84;99534.16;4962310;28;20050;-88
2023/03/18 02:34:33;;;;;;;21.75;9.68;;;;;;;9.38;78.56;99538.91;4976666;28;20498;-88
2023/03/18 02:37:00;;;;;;;22.05;10.52;;;;;;;9.33;78.54;99540.13;4974170;28;20410;-88
2023/03/18 02:39:29;;;;;;;22.45;9.50;;;;;;;9.33;78.87;99544.59;4971831;28;20045;-89
2023/03/18 02:41:57;;;;;;;23.38;10.35;;;;;;;9.31;79.11;99538.59;4987874;28;20053;-87
2023/03/18 02:44:24;;;;;;;22.70;10.10;;;;;;;9.32;78.86;99541.13;4966711;28;20091;-89
2023/03/18 02:47:21;;;;;;;26.58;10.68;;;;;;;9.33;79.02;99534.00;4970598;28;20057;-88
2023/03/18 02:49:48;;;;;;;25.85;10.98;;;;;;;9.32;78.89;99543.78;4971827;28;20048;-89
2023/03/18 02:52:15;;;;;;;28.30;11.48;;;;;;;9.32;78.93;99548.25;4972351;28;20077;-87
2023/03/18 02:54:42;;;;;;;24.83;10.68;;;;;;;9.25;79.15;99552.41;5014203;28;20480;-88
2023/03/18 02:57:09;;;;;;;28.35;11.50;;;;;;;9.26;78.99;99552.28;4997640;28;20071;-87
2023/03/18 02:59:38;;;;;;;19.95;10.02;;;;;;;9.25;79.12;99549.75;5012129;28;20488;-87
2023/03/18 03:02:05;;;;;;;22.30;10.40;;;;;;;9.16;79.17;99556.69;5005750;28;20044;-87
2023/03/18 03:04:32;;;;;;;22.60;10.00;;;;;;;9.12;78.89;99556.09;4992700;28;20049;-88
2023/03/18 03:07:00;;;;;;;18.92;9.73;;;;;;;9.14;78.92;99553.34;4990971;28;20041;-88
2023/03/18 03:09:35;;;;;;;22.02;9.73;;;;;;;9.12;78.98;99561.41;5026008;28;20041;-88
2023/03/18 03:12:05;;;;;;;20.38;10.23;;;;;;;9.09;79.14;99559.03;5006453;28;20433;-88
2023/03/18 03:14:36;;;;;;;22.23;11.25;;;;;;;9.07;78.85;99558.31;4974282;28;20049;-88
2023/03/18 03:17:03;;;;;;;22.55;9.48;;;;;;;9.11;78.87;99562.38;4990212;28;20046;-89
2023/03/18 03:19:30;;;;;;;23.40;9.98;;;;;;;9.06;78.97;99569.91;5011683;28;20052;-89
2023/03/18 03:21:57;;;;;;;20.92;9.98;;;;;;;9.07;78.87;99568.91;5049126;28;20068;-87
2023/03/18 03:24:24;;;;;;;26.83;10.90;;;;;;;9.05;78.93;99575.31;5018537;28;20057;-88
2023/03/18 03:26:51;;;;;;;19.23;9.80;;;;;;;9.04;78.80;99571.00;5022573;28;20377;-88
2023/03/18 03:29:19;;;;;;;23.27;10.05;;;;;;;8.98;79.13;99567.06;5000708;28;20042;-87
2023/03/18 03:31:48;;;;;;;23.40;10.55;;;;;;;8.98;78.80;99560.91;5003500;28;20568;-87
2023/03/18 03:34:15;;;;;;;21.00;9.73;;;;;;;8.93;78.71;99561.34;5006577;28;20045;-87
2023/03/18 03:36:41;;;;;;;21.50;9.93;;;;;;;8.90;78.90;99565.09;5038681;28;20042;-89
2023/03/18 03:39:09;;;;;;;19.48;9.50;;;;;;;8.91;79.06;99568.56;5004685;28;20485;-90
2023/03/18 03:41:36;;;;;;;17.45;9.25;;;;;;;8.84;78.88;99562.94;5006436;28;20500;-88
2023/03/18 03:44:03;;;;;;;21.42;8.40;;;;;;;8.85;79.13;99562.00;5010939;28;20572;-89
2023/03/18 03:46:30;;;;;;;32.30;8.98;;;;;;;8.85;79.14;99571.72;5011694;28;20049;-88
2023/03/18 03:48:59;;;;;;;18.35;8.75;;;;;;;8.83;79.58;99571.03;5014776;28;20411;-88
2023/03/18 03:51:26;;;;;;;20.85;9.88;;;;;;;8.89;78.74;99571.34;5020672;28;20049;-89
2023/03/18 03:53:53;;;;;;;18.52;9.18;;;;;;;8.86;79.41;99576.91;4990908;28;20415;-87
2023/03/18 03:56:21;;;;;;;22.02;10.07;;;;;;;8.91;79.13;99573.88;5034992;28;20049;-87
2023/03/18 03:58:47;;;;;;;22.80;10.07;;;;;;;8.91;79.66;99574.69;5010052;28;20045;-87
2023/03/18 04:01:15;;;;;;;23.63;9.73;;;;;;;8.88;79.55;99580.25;4991513;28;20052;-87
2023/03/18 04:03:44;;;;;;;17.80;9.63;;;;;;;8.87;79.80;99586.50;5014544;28;20128;-88
2023/03/18 04:06:12;;;;;;;16.65;9.80;;;;;;;8.87;79.94;99588.31;4990062;28;20042;-88
2023/03/18 04:08:45;;;;;;;15.88;9.00;;;;;;;8.92;79.66;99588.78;4978596;28;20041;-87
2023/03/18 04:11:12;;;;;;;20.05;9.43;;;;;;;8.88;80.13;99584.72;5026422;28;20128;-88
2023/03/18 04:13:40;;;;;;;19.08;8.10;;;;;;;8.86;80.05;99590.13;4991574;28;20041;-87
2023/03/18 04:16:08;;;;;;;23.83;9.65;;;;;;;8.88;80.17;99582.06;4976671;28;20049;-87
2023/03/18 04:18:35;;;;;;;21.98;8.82;;;;;;;8.88;80.00;99584.72;5015877;28;20053;-89
2023/03/18 04:21:03;;;;;;;20.38;8.52;;;;;;;8.89;79.47;99594.34;5023373;28;20050;-87
2023/03/18 04:23:45;;;;;;;24.23;8.75;;;;;;;8.88;79.22;99584.72;5016332;28;20048;-87
2023/03/18 04:26:11;;;;;;;20.30;9.05;;;;;;;8.89;79.94;99586.38;4985598;28;20045;-89
2023/03/18 04:28:39;;;;;;;21.67;8.35;;;;;;;8.87;79.55;99589.16;4988060;28;20037;-88
2023/03/18 04:31:08;;;;;;;25.02;9.25;;;;;;;8.86;78.96;99582.19;4986486;28;20092;-87
2023/03/18 04:33:34;;;;;;;19.85;9.07;;;;;;;8.84;79.00;99594.72;4994598;28;20043;-88
2023/03/18 04:36:01;;;;;;;22.98;8.88;;;;;;;8.82;79.05;99596.66;5022535;28;20048;-87
2023/03/18 04:38:28;;;;;;;23.77;8.73;;;;;;;8.84;78.80;99600.00;5010309;28;20060;-87
2023/03/18 04:40:55;;;;;;;24.08;8.77;;;;;;;8.84;78.60;99597.38;5001754;28;20049;-88
2023/03/18 04:43:25;;;;;;;19.33;8.25;;;;;;;8.79;78.44;99596.09;4985378;28;20068;-87
2023/03/18 04:45:52;;;;;;;18.98;8.40;;;;;;;8.89;78.30;99610.22;4992734;28;20067;-88
2023/03/18 04:48:20;;;;;;;16.65;8.02;;;;;;;8.86;78.43;99602.53;5027664;28;20589;-87
2023/03/18 04:50:47;;;;;;;23.23;8.60;;;;;;;8.79;78.56;99596.91;5030240;28;20055;-88
2023/03/18 04:53:20;;;;;;;23.80;8.50;;;;;;;8.73;78.87;99601.88;4984727;28;20049;-87
2023/03/18 04:55:48;;;;;;;18.13;8.25;;;;;;;8.73;78.69;99602.75;5007328;28;20041;-88
2023/03/18 04:58:16;;;;;;;16.95;7.90;;;;;;;8.65;78.57;99599.88;4999879;28;20042;-89
2023/03/18 05:00:55;;;;;;;20.13;9.60;;;;;;;8.61;78.76;99609.06;5002478;28;20056;-88
2023/03/18 05:03:28;;;;;;;;;;;;;;;8.25;79.76;99608.50;4989563;28;20052;-88
2023/03/18 05:05:55;;;;;;;24.30;8.95;;;;;;;8.52;79.20;99608.00;5003862;28;20015;-89
2023/03/18 05:08:31;;;;;;;19.73;9.52;;;;;;;8.56;79.07;99613.91;4996166;28;20046;-88
2023/03/18 05:11:02;;;;;;;21.63;9.48;;;;;;;8.52;78.68;99608.00;4995565;28;20046;-88
2023/03/18 05:13:31;;;;;;;21.50;9.18;;;;;;;8.56;78.83;99603.31;4988526;28;20100;-88
2023/03/18 05:15:58;;;;;;;24.08;9.32;;;;;;;8.57;78.65;99602.34;5025575;28;20104;-82
2023/03/18 05:18:25;;;;;;;21.17;8.88;;;;;;;8.54;78.65;99608.72;4988259;28;20049;-83
2023/03/18 05:20:53;;;;;;;25.13;11.15;;;;;;;8.48;78.84;99606.59;5024316;28;20621;-82
2023/03/18 05:23:21;;;;;;;20.92;9.43;;;;;;;8.41;79.35;99600.97;4991862;28;20162;-82
2023/03/18 05:25:52;;;;;;;25.53;9.67;;;;;;;8.36;79.40;99605.78;5009710;28;20556;-81
2023/03/18 05:28:21;;;;;;;17.63;8.38;;;;;;;8.34;80.08;99598.94;5013929;28;20907;-82
2023/03/18 05:31:27;;;;;;;16.75;7.95;;;;;;;8.40;79.39;99606.41;4927981;28;20108;-82
2023/03/18 05:33:54;;;;;;;18.73;9.98;;;;;;;8.39;78.94;99605.56;5008941;28;20412;-84
2023/03/18 05:36:23;;;;;;;22.25;9.60;;;;;;;8.36;79.31;99599.66;5003951;28;20056;-82
2023/03/18 05:38:59;;;;;;;23.88;9.43;;;;;;;8.31;79.16;99601.84;5009106;28;20045;-82
2023/03/18 05:41:27;;;;;;;19.90;8.50;;;;;;;8.31;79.08;99615.91;5028768;28;20051;-83
2023/03/18 05:43:55;;;;;;;15.15;8.13;;;;;;;8.32;79.11;99608.81;5001440;28;20056;-82
2023/03/18 05:46:23;;;;;;;25.13;9.52;;;;;;;8.34;79.13;99612.16;4997458;28;20045;-82
2023/03/18 05:49:07;;;;;;;18.65;7.97;;;;;;;8.24;79.58;99606.78;4984622;28;20059;-82
2023/03/18 05:51:45;;;;;;;16.85;7.93;;;;;;;8.32;79.74;99619.38;5009364;28;20482;-82
2023/03/18 05:54:18;;;;;;;19.17;8.50;;;;;;;8.26;79.76;99613.63;4976936;28;20403;-83
2023/03/18 05:56:45;;;;;;;23.23;8.68;;;;;;;8.22;79.71;99614.03;4987291;28;20519;-81
2023/03/18 05:59:15;;;;;;;19.08;8.73;;;;;;;8.19;79.98;99614.25;4989269;28;20456;-82
2023/03/18 06:01:48;;;;;;;18.42;8.50;;;;;;;8.22;79.99;99619.31;5020830;28;20045;-81
2023/03/18 06:04:18;;;;;;;18.42;8.07;;;;;;;8.20;80.18;99622.09;4994380;28;20148;-82
2023/03/18 06:06:47;;;;;;;22.05;8.15;;;;;;;8.20;80.53;99616.78;5004180;28;20045;-81
2023/03/18 06:09:15;;;;;;;17.58;7.88;;;;;;;8.17;80.52;99624.97;4986133;28;20378;-82
2023/03/18 06:11:44;;;;;;;23.52;8.32;;;;;;;8.18;80.63;99629.28;4965947;28;20048;-82
2023/03/18 06:14:11;;;;;;;17.60;7.95;;;;;;;8.23;80.57;99621.81;5012172;28;20451;-83
2023/03/18 06:16:39;;;;;;;23.20;8.32;;;;;;;8.27;80.26;99625.91;5007279;28;20430;-82
2023/03/18 06:19:06;;;;;;;18.58;8.00;;;;;;;8.25;80.60;99632.28;4981488;28;20176;-82
2023/03/18 06:21:35;;;;;;;16.02;8.60;;;;;;;8.25;80.69;99632.28;4974512;28;20160;-82
2023/03/18 06:24:02;;;;;;;19.90;8.25;;;;;;;8.32;80.86;99635.25;4997437;28;20779;-83
2023/03/18 06:26:31;;;;;;;20.38;8.93;;;;;;;8.24;80.69;99635.88;4979049;28;20135;-82
2023/03/18 06:29:00;;;;;;;18.50;7.50;;;;;;;8.26;80.92;99645.38;4986798;28;20129;-82
2023/03/18 06:31:27;;;;;;;16.63;7.90;;;;;;;8.26;80.75;99642.72;4978862;28;20042;-82
2023/03/18 06:33:54;;;;;;;14.25;8.07;;;;;;;8.34;80.82;99646.56;4972473;28;20058;-82
2023/03/18 06:36:22;;;;;;;16.23;7.55;;;;;;;8.40;80.79;99649.59;4991064;28;20429;-84
2023/03/18 06:38:52;;;;;;;17.02;8.40;;;;;;;8.43;80.67;99651.13;4973823;28;20048;-81
2023/03/18 06:41:20;;;;;;;15.30;6.85;;;;;;;8.38;80.88;99642.72;4991997;28;20052;-83
2023/03/18 06:44:06;;;;;;;21.88;7.68;;;;;;;8.43;80.86;99648.50;4974498;28;20045;-82
2023/03/18 06:46:34;;;;;;;25.92;10.10;;;;;;;8.46;80.91;99649.06;5010999;28;20139;-81
2023/03/18 06:49:02;;;;;;;22.95;8.20;;;;;;;8.54;80.52;99651.06;4976755;28;20127;-82
2023/03/18 06:51:35;;;;;;;17.98;8.73;;;;;;;8.56;80.55;99651.78;4970503;28;20049;-82
2023/03/18 06:54:02;;;;;;;21.50;8.00;;;;;;;8.60;80.35;99650.59;4992830;28;20041;-82
2023/03/18 06:56:33;;;;;;;18.60;8.32;;;;;;;8.67;79.98;99648.25;4970197;28;20085;-81
2023/03/18 06:59:11;;;;;;;16.02;8.13;;;;;;;8.75;79.59;99647.59;4957585;28;20050;-82
2023/03/18 07:01:38;;;;;;;17.95;9.65;;;;;;;8.81;79.41;99653.22;4979289;28;20060;-82
2023/03/18 07:04:05;;;;;;;38.47;12.85;;;;;;;8.83;79.45;99646.00;4995434;28;20049;-81
2023/03/18 07:06:33;;;;;;;33.22;11.38;;;;;;;8.86;79.22;99645.75;4995945;28;20037;-81
2023/03/18 07:09:00;;;;;;;28.25;9.82;;;;;;;8.96;79.12;99644.97;4991863;28;20694;-81
2023/03/18 07:11:28;;;;;;;31.83;11.70;;;;;;;9.11;78.82;99643.66;4993767;28;20502;-81
2023/03/18 07:13:56;;;;;;;21.50;11.00;;;;;;;9.17;79.26;99643.13;5000361;28;20133;-81
2023/03/18 07:16:29;;;;;;;26.42;9.55;;;;;;;9.33;78.59;99640.00;4999720;28;20094;-80
2023/03/18 07:18:57;;;;;;;25.20;10.18;;;;;;;9.39;78.24;99635.97;4990638;28;20095;-80
2023/03/18 07:21:25;;;;;;;24.92;9.77;;;;;;;9.50;78.00;99644.69;4986279;28;20104;-80
2023/03/18 07:23:54;;;;;;;21.83;9.80;;;;;;;9.59;78.23;99648.31;4990603;28;20521;-80
2023/03/18 07:26:23;;;;;;;19.92;9.02;;;;;;;9.70;77.99;99650.06;4989742;28;20375;-80
2023/03/18 07:28:50;;;;;;;24.55;9.93;;;;;;;9.72;77.94;99648.13;4997501;28;20508;-80
2023/03/18 07:31:17;;;;;;;21.25;9.48;;;;;;;9.78;77.39;99658.19;5014590;28;20099;-80
2023/03/18 07:33:45;;;;;;;26.75;9.50;;;;;;;9.74;77.92;99660.28;5021094;28;20052;-80
2023/03/18 07:36:12;;;;;;;25.38;10.45;;;;;;;9.71;77.75;99665.81;5024921;28;20485;-81
2023/03/18 07:38:39;;;;;;;19.38;8.88;;;;;;;9.66;78.36;99664.56;5001950;28;20144;-81
2023/03/18 07:41:06;;;;;;;23.02;9.85;;;;;;;9.64;78.49;99667.34;5003978;28;20041;-81
2023/03/18 07:43:34;;;;;;;23.52;9.57;;;;;;;9.67;78.38;99674.19;5017865;28;20056;-81
2023/03/18 07:46:01;;;;;;;22.17;9.45;;;;;;;9.64;78.97;99667.34;4983514;28;20438;-80
2023/03/18 07:48:29;;;;;;;23.85;9.30;;;;;;;9.65;78.96;99676.13;4994456;28;20053;-80
2023/03/18 07:50:56;;;;;;;20.63;9.98;;;;;;;9.65;79.33;99673.50;5028064;28;20049;-81
2023/03/18 07:53:24;;;;;;;26.25;9.88;;;;;;;9.72;78.83;99677.28;5033057;28;20122;-81
2023/03/18 07:55:50;;;;;;;20.90;10.05;;;;;;;9.75;78.86;99674.38;5027334;28;20082;-80
2023/03/18 07:58:17;;;;;;;19.35;8.98;;;;;;;9.82;78.34;99680.81;5002993;28;20041;-80
2023/03/18 08:00:44;;;;;;;19.05;9.35;;;;;;;9.89;77.68;99678.44;5015767;28;23722;-80
2023/03/18 08:03:11;;;;;;;28.95;10.75;;;;;;;9.92;77.49;99680.81;5027830;28;20045;-80
2023/03/18 08:05:38;;;;;;;22.65;9.75;;;;;;;9.95;77.09;99673.44;5009356;28;20042;-80
2023/03/18 08:08:05;;;;;;;24.98;9.68;;;;;;;9.98;76.64;99673.16;5021656;28;20104;-80
2023/03/18 08:10:32;;;;;;;22.23;9.57;;;;;;;10.02;76.72;99679.03;5006590;28;20132;-80
2023/03/18 08:12:59;;;;;;;20.52;9.43;;;;;;;10.03;76.49;99679.88;4998761;28;20065;-83
2023/03/18 08:15:26;;;;;;;23.50;10.77;;;;;;;10.06;76.56;99675.13;5014171;28;20489;-82
2023/03/18 08:17:53;;;;;;;21.75;10.18;;;;;;;10.09;76.69;99684.63;5030449;28;20466;-82
2023/03/18 08:20:21;;;;;;;25.98;10.05;;;;;;;10.08;76.93;99675.00;5005482;28;20046;-82
2023/03/18 08:22:49;;;;;;;27.48;11.13;;;;;;;10.12;77.28;99673.75;5012397;28;20678;-82
2023/03/18 08:25:15;;;;;;;26.25;10.48;;;;;;;10.16;76.91;99678.66;4997313;28;20057;-82
2023/03/18 08:27:42;;;;;;;21.13;10.38;;;;;;;10.21;76.82;99675.59;4991969;28;20135;-81
2023/03/18 08:30:10;;;;;;;21.70;9.70;;;;;;;10.22;77.11;99675.44;5028476;28;20041;-82
2023/03/18 08:32:37;;;;;;;21.00;10.70;;;;;;;10.29;77.22;99675.75;5029244;28;20042;-82
2023/03/18 08:35:04;;;;;;;29.75;10.90;;;;;;;10.37;77.56;99672.41;5008198;28;20046;-82
2023/03/18 08:37:31;;;;;;;21.23;10.95;;;;;;;10.40;77.42;99675.63;5032612;28;20070;-82
2023/03/18 08:39:58;;;;;;;24.48;11.70;;;;;;;10.47;76.96;99677.75;5011564;28;20064;-82
2023/03/18 08:42:24;;;;;;;24.10;10.55;;;;;;;10.52;76.76;99679.00;5011397;28;20049;-82
2023/03/18 08:44:51;;;;;;;26.63;12.13;;;;;;;10.58;76.70;99677.59;4953785;28;20049;-82
2023/03/18 08:47:18;;;;;;;25.85;11.50;;;;;;;10.60;76.71;99673.00;5005151;28;20095;-82
2023/03/18 08:49:45;;;;;;;19.60;9.93;;;;;;;10.65;75.54;99676.91;5003898;28;20050;-82
2023/03/18 08:52:12;;;;;;;20.42;9.88;;;;;;;10.70;75.29;99671.16;5025288;28;20053;-82
2023/03/18 08:54:39;;;;;;;23.88;10.25;;;;;;;10.73;75.34;99670.03;5026303;28;20120;-82
2023/03/18 08:57:05;;;;;;;26.83;10.32;;;;;;;10.78;75.38;99673.13;5022092;28;20488;-82
2023/03/18 08:59:32;;;;;;;25.58;10.50;;;;;;;10.83;75.12;99671.72;4958022;28;20053;-82
2023/03/18 09:01:59;;;;;;;18.25;9.65;;;;;;;10.88;74.98;99663.31;4992645;28;20492;-82
2023/03/18 09:04:25;;;;;;;21.65;9.88;;;;;;;10.89;74.93;99659.72;5005249;28;20049;-81
2023/03/18 09:06:52;;;;;;;33.80;10.48;;;;;;;10.96;75.21;99662.63;5024318;28;20053;-82
2023/03/18 09:09:19;;;;;;;27.25;10.75;;;;;;;10.98;74.88;99661.50;5014102;28;20042;-82
2023/03/18 09:11:50;;;;;;;28.02;10.40;;;;;;;11.02;75.12;99668.22;5014443;28;20051;-82
2023/03/18 09:14:17;;;;;;;21.73;10.50;;;;;;;11.04;74.94;99652.97;5020970;28;20049;-81
2023/03/18 09:16:44;;;;;;;19.75;9.65;;;;;;;11.08;74.89;99664.97;4995544;28;20038;-82
2023/03/18 09:19:11;;;;;;;20.33;10.60;;;;;;;11.12;74.76;99660.22;5012932;28;20041;-82
2023/03/18 09:21:38;;;;;;;21.85;9.52;;;;;;;11.16;74.17;99655.44;5010709;28;20042;-82
2023/03/18 09:24:05;;;;;;;28.55;9.98;;;;;;;11.19;74.42;99650.66;5017931;28;20453;-82
2023/03/18 09:26:33;;;;;;;19.67;9.35;;;;;;;11.23;74.31;99648.56;4953718;28;1105091;-82
2023/03/18 09:29:00;;;;;;;24.35;9.50;;;;;;;11.26;73.99;99653.59;5011751;28;20448;-82
2023/03/18 09:31:26;;;;;;;18.13;8.55;;;;;;;11.33;73.99;99649.38;5025988;28;20038;-82
2023/03/18 09:33:53;;;;;;;18.77;8.90;;;;;;;11.39;74.19;99647.97;5024486;28;20049;-82
2023/03/18 09:36:20;;;;;;;31.13;9.50;;;;;;;11.43;74.02;99647.53;5003447;28;20046;-82
2023/03/18 09:38:47;;;;;;;25.67;9.10;;;;;;;11.45;73.60;99640.25;4990467;28;20083;-82
2023/03/18 09:41:44;;;;;;;24.98;9.38;;;;;;;11.44;73.00;99648.34;5012369;28;20041;-82
2023/03/18 09:44:16;;;;;;;20.30;9.40;;;;;;;11.48;72.86;99637.28;4960209;28;20052;-82
2023/03/18 09:47:04;;;;;;;19.60;8.35;;;;;;;11.49;71.95;99638.13;4988201;28;20033;-82
2023/03/18 09:49:45;;;;;;;19.80;8.48;;;;;;;11.54;72.21;99627.88;4990186;28;20048;-82
2023/03/18 09:52:33;;;;;;;23.15;8.55;;;;;;;11.59;72.49;99622.13;4994982;28;21019;-82
2023/03/18 09:55:04;;;;;;;21.30;8.30;;;;;;;11.64;72.53;99630.50;4967129;28;20132;-82
2023/03/18 09:57:33;;;;;;;19.65;7.97;;;;;;;11.68;72.32;99630.06;5010289;28;20546;-82
2023/03/18 10:00:04;;;;;;;22.42;7.60;;;;;;;11.68;71.48;99627.41;5001781;28;20390;-82
2023/03/18 10:02:47;;;;;;;17.50;7.35;;;;;;;11.69;71.06;99617.59;5010702;28;20038;-82
2023/03/18 10:05:22;;;;;;;12.82;6.65;;;;;;;11.80;71.59;99621.88;4987116;28;20485;-83
2023/03/18 10:07:51;;;;;;;14.57;7.97;;;;;;;11.85;71.71;99624.91;5001989;28;20045;-82
2023/03/18 10:10:26;;;;;;;20.23;6.72;;;;;;;11.86;71.07;99614.19;5006130;28;20392;-82
2023/03/18 10:13:06;;;;;;;16.65;6.85;;;;;;;11.88;69.82;99614.88;4973124;28;20060;-83
2023/03/18 10:15:48;;;;;;;14.18;6.38;;;;;;;11.94;70.20;99611.59;4993251;28;20138;-83
2023/03/18 10:18:25;;;;;;;14.27;6.25;;;;;;;11.97;68.97;99604.31;4991321;28;20063;-82
2023/03/18 10:20:58;;;;;;;15.00;6.07;;;;;;;12.05;69.12;99612.38;4961733;28;20065;-82
2023/03/18 10:23:46;;;;;;;14.43;6.28;;;;;;;12.04;68.39;99613.38;4984529;28;20053;-82
2023/03/18 10:26:18;;;;;;;18.95;7.05;;;;;;;12.11;69.03;99609.94;4992410;28;20080;-82
2023/03/18 10:28:55;;;;;;;16.65;5.75;;;;;;;12.11;68.41;99607.28;5010897;28;20051;-82
2023/03/18 10:31:55;;;;;;;16.23;6.43;;;;;;;12.15;68.33;99600.66;5025378;28;20052;-82
2023/03/18 10:34:26;;;;;;;11.35;5.82;;;;;;;12.24;68.52;99609.56;4959115;28;20366;-82
2023/03/18 10:37:14;;;;;;;14.48;5.88;;;;;;;12.20;67.98;99610.84;4986482;28;20048;-82
2023/03/18 10:39:44;;;;;;;15.13;6.03;;;;;;;12.33;67.93;99607.81;4979043;28;20049;-82
2023/03/18 10:42:24;;;;;;;14.80;5.18;;;;;;;12.37;67.74;99603.88;4998955;28;20042;-82
2023/03/18 10:44:51;;;;;;;14.20;5.00;;;;;;;12.42;67.87;99606.91;4977186;28;20038;-82
2023/03/18 10:47:26;;;;;;;14.00;5.75;;;;;;;12.47;67.02;99603.78;5003106;28;20046;-82
2023/03/18 10:49:59;;;;;;;14.55;6.30;;;;;;;12.52;67.46;99604.16;5015718;28;20492;-82
2023/03/18 10:52:35;;;;;;;19.52;6.50;;;;;;;12.55;66.52;99596.69;4996116;28;20050;-82
2023/03/18 10:55:02;;;;;;;21.60;6.00;;;;;;;12.58;67.03;99595.53;5008074;28;20102;-82
2023/03/18 10:57:29;;;;;;;11.80;5.38;;;;;;;12.61;66.43;99587.25;5021260;28;20042;-83
2023/03/18 10:59:56;;;;;;;13.27;4.93;;;;;;;12.63;65.90;99585.25;5009375;28;20547;-82
2023/03/18 11:02:32;;;;;;;14.52;5.18;;;;;;;12.66;66.38;99581.44;5014926;28;20042;-83
2023/03/18 11:05:03;;;;;;;18.50;5.07;;;;;;;12.66;65.83;99576.97;4991733;28;20092;-83
2023/03/18 11:07:31;;;;;;;12.38;4.97;;;;;;;12.68;65.81;99577.63;4996884;28;20436;-83
2023/03/18 11:10:14;;;;;;;15.00;5.15;;;;;;;12.67;64.74;99577.78;5009629;28;20535;-83
2023/03/18 11:12:41;;;;;;;11.88;4.35;;;;;;;12.76;64.94;99582.19;4985666;28;20127;-83
2023/03/18 11:15:11;;;;;;;9.90;4.13;;;;;;;12.82;64.68;99574.41;4972280;28;20041;-83
2023/03/18 11:17:39;;;;;;;14.07;4.45;;;;;;;12.88;64.24;99578.28;5003622;28;20053;-83
2023/03/18 11:20:42;;;;;;;10.35;4.10;;;;;;;12.89;63.47;99584.44;5013147;28;20354;-83
2023/03/18 11:23:55;;;;;;;17.67;4.30;;;;;;;12.89;62.51;99577.28;4917959;28;20500;-83
2023/03/18 11:26:26;;;;;;;10.77;3.92;;;;;;;12.91;63.11;99571.81;4891144;28;20050;-82
2023/03/18 11:28:58;;;;;;;19.95;3.70;;;;;;;12.94;63.66;99577.63;5007326;28;20049;-82
2023/03/18 11:31:24;;;;;;;9.60;3.90;;;;;;;12.96;64.18;99573.00;4991764;28;20391;-83
2023/03/18 11:33:56;;;;;;;14.85;4.10;;;;;;;12.98;63.81;99565.69;5018999;28;20059;-82
2023/03/18 11:36:26;;;;;;;11.07;3.85;;;;;;;13.04;63.70;99565.03;4975279;28;20473;-82
2023/03/18 11:39:00;;;;;;;10.13;4.50;;;;;;;13.07;63.53;99563.06;4975388;28;20057;-83
2023/03/18 11:41:29;;;;;;;11.60;4.88;;;;;;;13.11;63.60;99559.91;5009735;28;20062;-83
2023/03/18 11:44:06;;;;;;;15.23;4.95;;;;;;;13.08;61.97;99554.91;4990903;28;20455;-83